• Join FlightAware (Why Join?)
  • Login
  • US Flag 
Rudolph Flight #1: Arrived! 
08:53PM EST


 

Airport Tracker/Info


-or-


 

Live Flight TrackerFlight Track Log ✈ AAR8739 ✈ 21-Jul-2013 ✈ RKSS / GMP - RKJY / RSU

Flight Track Log - Related Links

Times and Time Zones

All times are in EDT time to prevent confusion due to time zone crossing. See the AAR8739 flight status page for this flight to view local times or setup timezone preferences in your user account.

Time Position Orientation Groundspeed Altitude Reporting Facility
EDT Latitude Longitude Course Direction KTS MPH feet Rate Location/Type
10:46PM 37.4910 126.8690 158° South 225 259 5,100  Level FlightAware
10:46PM 37.4800 126.8740 160° South 237 273 5,500 1,620 Climbing FlightAware
10:46PM 37.4470 126.8870 163° South 268 308 6,200 1,020 Climbing FlightAware
10:46PM 37.4330 126.8920 164° South 268 308 6,200 240 Level FlightAware
10:47PM 37.3950 126.9080 162° South 272 313 6,400 1,500 Climbing FlightAware
10:47PM 37.3590 126.9280 156° South 294 338 7,700 1,920 Climbing FlightAware
10:48PM 37.3340 126.9490 146° Southeast 292 336 8,200 1,020 Climbing FlightAware
10:48PM 37.2990 126.9790 146° Southeast 294 338 8,700 1,500 Climbing FlightAware
10:49PM 37.2830 126.9850 163° South 286 329 9,200 3,480 Climbing FlightAware
10:49PM 37.2250 126.9850 180° South 293 337 11,900 2,700 Climbing FlightAware
10:50PM 37.1790 126.9830 182° South 320 368 12,800 660 Climbing FlightAware
10:51PM 37.1270 126.9810 182° South 320 368 12,800  Level FlightAware
10:51PM 37.0670 126.9780 182° South 320 368 12,800  Level FlightAware
10:54PM 36.8791 127.0332 167° South  Level Estimated
10:55PM 36.7910 127.0590 167° South  Level Estimated
10:56PM 36.7029 127.0847 167° South  Level Estimated
10:57PM 36.6148 127.1104 167° South  Level Estimated
10:58PM 36.5267 127.1360 167° South  Level Estimated
10:59PM 36.4386 127.1616 167° South  Level Estimated
11:00PM 36.3505 127.1871 167° South  Level Estimated
11:01PM 36.2623 127.2125 167° South  Level Estimated
11:02PM 36.1742 127.2379 167° South  Level Estimated
11:03PM 36.0861 127.2633 167° South  Level Estimated
11:04PM 35.9979 127.2885 167° South  Level Estimated
11:05PM 35.9098 127.3138 167° South  Level Estimated
11:06PM 35.8217 127.3389 167° South  Level Estimated
11:07PM 35.7335 127.3640 167° South  Level Estimated
11:08PM 35.6453 127.3891 167° South  Level Estimated
11:09PM 35.5572 127.4140 167° South  Level Estimated
11:10PM 35.4690 127.4390 167° South  Level Estimated
11:11PM 35.3808 127.4639 167° South  Level Estimated
11:12PM 35.2926 127.4887 167° South  Level Estimated
11:13PM 35.2044 127.5135 167° South  Level Estimated
11:14PM 35.1162 127.5382 167° South  Level Estimated
11:15PM 35.0280 127.5629 167° South  Level Estimated
11:16PM 34.9398 127.5875 167° South  Level Estimated
11:17PM 34.8516 127.6120 167° South  Level Estimated
11:18PM 34.8398 127.6153 167° South  Level Estimated
11:19PM 34.8398 127.6153 180° South  Level Estimated
11:20PM 34.8398 127.6153 180° South  Level Estimated
11:21PM 34.8398 127.6153 180° South  Level Estimated
11:22PM 34.8398 127.6153 180° South  Level Estimated
11:23PM 34.8398 127.6153 180° South  Level Estimated
11:24PM 34.8398 127.6153 180° South  Level Estimated
11:25PM 34.8398 127.6153 180° South  Level Estimated
11:26PM 34.8398 127.6153 180° South  Level Estimated
11:27PM 34.8398 127.6153 180° South  Level Estimated
11:28PM 34.8398 127.6153 180° South  Level Estimated
11:29PM 34.8398 127.6153 180° South  Level Estimated
11:30PM 34.8398 127.6153 180° South  Level Estimated
11:31PM 34.8398 127.6153 180° South  Level Estimated